createdAt,value
2023-01-20T00:01:34.320Z,33.93
2023-01-20T00:04:01.082Z,29.80
2023-01-20T00:06:28.480Z,34.10
2023-01-20T00:08:56.882Z,31.50
2023-01-20T00:11:24.257Z,28.33
2023-01-20T00:13:55.859Z,32.60
2023-01-20T00:16:23.310Z,32.07
2023-01-20T00:18:49.889Z,29.70
2023-01-20T00:21:17.507Z,30.87
2023-01-20T00:23:45.527Z,30.20
2023-01-20T00:26:16.156Z,29.60
2023-01-20T00:28:43.962Z,34.73
2023-01-20T00:31:20.911Z,32.83
2023-01-20T00:33:49.150Z,29.20
2023-01-20T00:36:17.396Z,28.73
2023-01-20T00:38:44.795Z,31.83
2023-01-20T00:41:11.813Z,28.80
2023-01-20T00:43:38.670Z,30.40
2023-01-20T00:46:07.211Z,29.23
2023-01-20T00:48:34.269Z,27.83
2023-01-20T00:51:01.197Z,33.03
2023-01-20T00:53:28.320Z,34.10
2023-01-20T00:55:55.203Z,31.10
2023-01-20T00:58:21.910Z,27.30
2023-01-20T01:00:53.534Z,29.80
2023-01-20T01:03:20.435Z,34.60
2023-01-20T01:05:47.371Z,28.43
2023-01-20T01:08:14.636Z,27.87
2023-01-20T01:10:41.703Z,31.90
2023-01-20T01:13:09.534Z,32.93
2023-01-20T01:15:36.704Z,29.07
2023-01-20T01:18:03.994Z,29.77
2023-01-20T01:20:30.722Z,33.87
2023-01-20T01:22:57.557Z,28.23
2023-01-20T01:25:24.588Z,31.17
2023-01-20T01:27:51.559Z,30.93
2023-01-20T01:30:18.550Z,30.17
2023-01-20T01:32:45.135Z,29.23
2023-01-20T01:35:12.180Z,33.57
2023-01-20T01:37:39.058Z,24.53
2023-01-20T01:40:06.309Z,32.40
2023-01-20T01:42:32.887Z,30.90
2023-01-20T01:45:11.802Z,29.37
2023-01-20T01:47:53.034Z,33.60
2023-01-20T01:50:48.723Z,26.70
2023-01-20T01:53:16.132Z,28.93
2023-01-20T01:55:59.419Z,30.33
2023-01-20T01:58:30.095Z,35.58
2023-01-20T02:00:56.722Z,36.37
2023-01-20T02:03:27.487Z,31.63
2023-01-20T02:05:55.712Z,31.37
2023-01-20T02:08:23.011Z,30.17
2023-01-20T02:10:49.766Z,35.30
2023-01-20T02:13:16.423Z,30.33
2023-01-20T02:16:02.179Z,27.47
2023-01-20T02:18:41.708Z,30.67
2023-01-20T02:21:29.935Z,35.17
2023-01-20T02:24:24.689Z,36.97
2023-01-20T02:27:08.478Z,34.63
2023-01-20T02:29:54.250Z,30.95
2023-01-20T02:32:32.579Z,36.43
2023-01-20T02:35:10.779Z,36.63
2023-01-20T02:37:52.662Z,32.43
2023-01-20T02:40:27.080Z,34.67
2023-01-20T02:43:15.524Z,34.63
2023-01-20T02:45:50.712Z,36.53
2023-01-20T02:48:44.476Z,30.97
2023-01-20T02:51:21.382Z,33.55
2023-01-20T02:53:52.075Z,32.73
2023-01-20T02:56:23.572Z,34.90
2023-01-20T02:58:56.498Z,33.70
2023-01-20T03:01:28.118Z,32.40
2023-01-20T03:03:59.412Z,33.63
2023-01-20T03:06:30.894Z,33.60
2023-01-20T03:09:01.202Z,33.53
2023-01-20T03:11:30.728Z,33.80
2023-01-20T03:14:06.031Z,34.53
2023-01-20T03:16:32.958Z,32.57
2023-01-20T03:18:59.621Z,30.63
2023-01-20T03:21:27.189Z,32.57
2023-01-20T03:24:00.143Z,29.57
2023-01-20T03:26:27.110Z,34.70
2023-01-20T03:28:54.850Z,32.17
2023-01-20T03:31:29.746Z,30.57
2023-01-20T03:34:00.075Z,29.53
2023-01-20T03:36:30.178Z,30.60
2023-01-20T03:38:58.934Z,30.93
2023-01-20T03:41:40.974Z,27.27
2023-01-20T03:44:19.810Z,30.73
2023-01-20T03:46:59.789Z,26.73
2023-01-20T03:49:51.204Z,32.10
2023-01-20T03:52:47.942Z,27.97
2023-01-20T03:55:43.379Z,27.40
2023-01-20T03:58:15.215Z,29.53
2023-01-20T04:00:47.561Z,30.33
2023-01-20T04:03:25.330Z,30.33
2023-01-20T04:05:53.449Z,29.30
2023-01-20T04:08:24.551Z,33.67
2023-01-20T04:10:53.102Z,34.40
2023-01-20T04:13:20.029Z,38.43
2023-01-20T04:15:47.031Z,32.93
2023-01-20T04:18:15.286Z,35.33
2023-01-20T04:20:47.879Z,35.17
2023-01-20T04:23:33.752Z,33.63
2023-01-20T04:26:00.589Z,35.60
2023-01-20T04:28:27.231Z,38.30
2023-01-20T04:30:54.019Z,34.57
2023-01-20T04:33:20.930Z,33.73
2023-01-20T04:35:47.960Z,34.97
2023-01-20T04:38:14.563Z,38.47
2023-01-20T04:40:41.246Z,42.50
2023-01-20T04:43:10.139Z,45.70
2023-01-20T04:45:41.995Z,42.73
2023-01-20T04:48:10.149Z,43.07
2023-01-20T04:50:42.328Z,37.80
2023-01-20T04:53:13.951Z,38.93
2023-01-20T04:55:40.937Z,42.57
2023-01-20T04:58:07.507Z,40.43
2023-01-20T05:00:34.138Z,47.63
2023-01-20T05:03:00.857Z,40.70
2023-01-20T05:05:27.862Z,44.77
2023-01-20T05:07:55.436Z,42.23
2023-01-20T05:10:22.194Z,50.00
2023-01-20T05:12:49.123Z,39.90
2023-01-20T05:15:16.381Z,48.77
2023-01-20T05:17:43.081Z,50.03
2023-01-20T05:20:10.412Z,53.57
2023-01-20T05:22:37.178Z,45.83
2023-01-20T05:25:04.111Z,50.73
2023-01-20T05:27:30.839Z,44.80
2023-01-20T05:29:57.730Z,53.03
2023-01-20T05:32:24.268Z,50.50
2023-01-20T05:34:51.069Z,55.70
2023-01-20T05:37:18.590Z,52.77
2023-01-20T05:39:45.168Z,58.90
2023-01-20T05:42:11.778Z,53.63
2023-01-20T05:44:38.607Z,54.37
2023-01-20T05:47:06.214Z,53.27
2023-01-20T05:49:33.167Z,58.47
2023-01-20T05:51:59.734Z,50.37
2023-01-20T05:54:26.383Z,65.87
2023-01-20T05:56:53.027Z,54.20
2023-01-20T05:59:19.631Z,54.60
2023-01-20T06:01:46.172Z,53.50
2023-01-20T06:04:13.168Z,51.73
2023-01-20T06:06:39.739Z,55.80
2023-01-20T06:09:06.876Z,61.70
2023-01-20T06:11:33.649Z,55.87
2023-01-20T06:14:00.262Z,56.20
2023-01-20T06:16:27.031Z,54.03
2023-01-20T06:18:53.718Z,58.20
2023-01-20T06:21:20.367Z,60.08
2023-01-20T06:23:47.873Z,57.03
2023-01-20T06:26:15.294Z,62.00
2023-01-20T06:28:42.893Z,55.63
2023-01-20T06:31:12.164Z,58.90
2023-01-20T06:33:39.083Z,58.87
2023-01-20T06:36:07.397Z,63.60
2023-01-20T06:38:35.809Z,63.33
2023-01-20T06:41:04.693Z,63.20
2023-01-20T06:43:34.121Z,63.17
2023-01-20T06:46:05.578Z,76.67
2023-01-20T06:48:32.810Z,62.50
2023-01-20T06:51:04.965Z,70.27
2023-01-20T06:53:31.774Z,63.03
2023-01-20T06:56:00.907Z,65.43
2023-01-20T06:58:30.842Z,66.50
2023-01-20T07:00:59.073Z,66.70
2023-01-20T07:59:31.879Z,61.60
2023-01-20T08:01:59.058Z,51.80
2023-01-20T08:04:25.793Z,45.13
2023-01-20T08:06:53.141Z,63.73
2023-01-20T08:09:20.840Z,62.20
2023-01-20T08:11:48.379Z,43.23
2023-01-20T08:14:15.924Z,43.73
2023-01-20T08:16:43.333Z,69.47
2023-01-20T08:19:10.790Z,62.67
2023-01-20T08:21:38.542Z,72.20
2023-01-20T08:24:06.995Z,67.53
2023-01-20T08:26:34.902Z,48.17
2023-01-20T08:29:05.248Z,47.50
2023-01-20T08:31:32.711Z,36.87
2023-01-20T08:34:00.483Z,38.80
2023-01-20T08:36:33.836Z,37.00
2023-01-20T08:39:04.519Z,44.67
2023-01-20T08:41:34.976Z,49.93
2023-01-20T08:44:04.850Z,39.33
2023-01-20T08:46:34.734Z,32.40
2023-01-20T08:49:02.330Z,31.55
2023-01-20T08:51:32.284Z,38.97
2023-01-20T08:54:00.212Z,67.53
2023-01-20T08:56:28.544Z,79.07
2023-01-20T08:59:00.262Z,74.23
2023-01-20T09:01:29.612Z,68.77
2023-01-20T09:04:06.749Z,49.60
2023-01-20T09:06:46.279Z,38.83
2023-01-20T09:09:15.752Z,37.30
2023-01-20T09:11:50.934Z,36.53
2023-01-20T09:14:20.299Z,33.22
2023-01-20T09:16:48.238Z,32.73
2023-01-20T09:19:15.906Z,31.23
2023-01-20T09:21:43.889Z,31.02
2023-01-20T09:24:11.417Z,32.20
2023-01-20T09:26:41.840Z,33.10
2023-01-20T09:29:12.690Z,31.73
2023-01-20T09:31:46.179Z,37.13
2023-01-20T09:34:19.943Z,55.20
2023-01-20T09:39:55.927Z,35.95
2023-01-20T09:43:08.696Z,34.50
2023-01-20T09:45:36.430Z,104.47
2023-01-20T09:48:15.911Z,41.30
2023-01-20T09:51:18.495Z,34.60
2023-01-20T09:54:03.505Z,39.87
2023-01-20T09:56:37.463Z,32.17
2023-01-20T09:59:12.856Z,33.20
2023-01-20T10:01:50.576Z,34.00
2023-01-20T10:04:30.501Z,29.08
2023-01-20T10:07:04.222Z,32.08
2023-01-20T10:12:21.142Z,33.67
2023-01-20T10:15:20.257Z,39.63
2023-01-20T10:18:16.315Z,34.88
2023-01-20T10:21:08.496Z,37.72
2023-01-20T10:24:03.396Z,42.30
2023-01-20T10:26:35.551Z,40.63
2023-01-20T10:29:05.937Z,33.92
2023-01-20T10:31:39.161Z,40.17
2023-01-20T10:34:13.533Z,31.38
2023-01-20T10:36:44.823Z,36.15
2023-01-20T10:39:31.892Z,36.42
2023-01-20T10:42:11.951Z,36.15
2023-01-20T10:44:39.697Z,36.60
2023-01-20T10:47:27.890Z,41.60
2023-01-20T10:50:20.923Z,29.45
2023-01-20T10:52:57.680Z,27.90
2023-01-20T10:55:33.797Z,28.52
2023-01-20T10:58:11.167Z,30.83
2023-01-20T11:00:39.846Z,42.67
2023-01-20T11:03:12.528Z,28.10
2023-01-20T11:05:42.071Z,23.35
2023-01-20T11:08:22.761Z,27.38
2023-01-20T11:11:02.550Z,30.27
2023-01-20T11:13:29.974Z,41.50
2023-01-20T11:16:02.703Z,62.58
2023-01-20T11:18:31.908Z,36.50
2023-01-20T11:21:06.268Z,39.15
2023-01-20T11:23:49.773Z,41.45
2023-01-20T11:26:20.053Z,30.23
2023-01-20T11:29:02.214Z,39.75
2023-01-20T11:31:43.605Z,27.98
2023-01-20T11:34:26.483Z,29.07
2023-01-20T11:37:21.344Z,27.67
2023-01-20T11:39:50.951Z,26.25
2023-01-20T11:42:21.067Z,32.33
2023-01-20T11:44:49.986Z,33.87
2023-01-20T11:47:24.986Z,36.45
2023-01-20T11:50:07.459Z,34.55
2023-01-20T11:52:53.130Z,53.35
2023-01-20T11:55:26.414Z,55.93
2023-01-20T11:57:56.525Z,43.65
2023-01-20T12:00:26.979Z,37.38
2023-01-20T12:03:03.691Z,37.75
2023-01-20T12:05:44.539Z,34.20
2023-01-20T12:08:18.216Z,29.53
2023-01-20T12:13:25.802Z,36.70
2023-01-20T12:15:57.122Z,28.23
2023-01-20T12:18:37.731Z,35.77
2023-01-20T12:21:18.894Z,29.93
2023-01-20T12:24:03.017Z,35.47
2023-01-20T12:26:31.832Z,35.30
2023-01-20T12:29:25.081Z,35.17
2023-01-20T12:31:54.877Z,37.75
2023-01-20T12:34:31.007Z,34.45
2023-01-20T12:37:39.175Z,31.00
2023-01-20T12:40:36.210Z,31.07
2023-01-20T12:43:06.601Z,30.70
2023-01-20T12:45:57.794Z,29.93
2023-01-20T12:48:33.172Z,39.33
2023-01-20T12:51:42.382Z,39.43
2023-01-20T12:54:47.352Z,35.27
2023-01-20T12:57:39.707Z,38.38
2023-01-20T13:00:35.325Z,35.43
2023-01-20T13:03:23.750Z,32.38
2023-01-20T13:06:28.074Z,34.40
2023-01-20T13:09:35.772Z,34.60
2023-01-20T13:12:15.306Z,31.93
2023-01-20T13:14:55.868Z,34.60
2023-01-20T13:17:28.782Z,37.33
2023-01-20T13:19:59.866Z,26.05
2023-01-20T13:22:26.766Z,35.87
2023-01-20T13:24:56.624Z,38.73
2023-01-20T13:27:32.353Z,41.33
2023-01-20T13:30:03.448Z,41.93
2023-01-20T13:32:33.804Z,41.57
2023-01-20T13:35:03.557Z,37.67
2023-01-20T13:37:38.799Z,35.10
2023-01-20T13:40:37.908Z,34.13
2023-01-20T13:43:26.647Z,39.43
2023-01-20T13:46:15.890Z,42.80
2023-01-20T13:49:14.199Z,38.67
2023-01-20T13:51:46.211Z,40.87
2023-01-20T13:54:25.887Z,48.97
2023-01-20T13:56:53.445Z,38.80
2023-01-20T13:59:20.366Z,38.23
2023-01-20T14:01:47.393Z,42.67
2023-01-20T14:04:20.164Z,45.23
2023-01-20T14:06:52.891Z,34.53
2023-01-20T14:09:21.976Z,37.50
2023-01-20T14:11:51.341Z,34.83
2023-01-20T14:14:20.828Z,35.23
2023-01-20T14:16:48.801Z,36.23
2023-01-20T14:19:34.632Z,34.17
2023-01-20T14:22:04.537Z,33.63
2023-01-20T14:25:01.049Z,42.70
2023-01-20T14:27:35.867Z,74.77
2023-01-20T14:30:23.083Z,66.57
2023-01-20T14:32:51.386Z,39.27
2023-01-20T14:35:31.339Z,40.50
2023-01-20T14:37:59.565Z,39.07
2023-01-20T14:40:35.910Z,52.57
2023-01-20T14:43:04.201Z,40.80
2023-01-20T14:45:32.947Z,20.50
2023-01-20T14:48:03.022Z,20.97
2023-01-20T14:50:30.983Z,50.07
2023-01-20T14:52:58.490Z,49.67
2023-01-20T14:55:37.288Z,29.33
2023-01-20T14:58:18.668Z,19.90
2023-01-20T15:00:48.040Z,19.53
2023-01-20T15:03:20.593Z,12.87
2023-01-20T15:06:06.651Z,16.63
2023-01-20T15:08:34.410Z,13.07
2023-01-20T15:11:14.242Z,21.67
2023-01-20T15:13:43.852Z,22.17
2023-01-20T15:16:13.979Z,26.07
2023-01-20T15:18:41.478Z,51.17
2023-01-20T15:21:28.429Z,17.40
2023-01-20T15:23:55.905Z,25.70
2023-01-20T15:26:29.651Z,22.43
2023-01-20T15:31:25.308Z,34.13
2023-01-20T15:33:52.454Z,106.37
2023-01-20T15:36:19.587Z,29.10
2023-01-20T15:38:48.596Z,25.33
2023-01-20T15:41:16.377Z,21.43
2023-01-20T15:43:45.599Z,26.33
2023-01-20T15:46:15.340Z,23.03
2023-01-20T15:48:44.166Z,23.80
2023-01-20T15:51:19.150Z,28.40
2023-01-20T15:53:46.639Z,22.30
2023-01-20T15:56:20.748Z,23.97
2023-01-20T15:58:48.361Z,24.27
2023-01-20T16:01:17.544Z,28.57
2023-01-20T16:03:45.698Z,26.17
2023-01-20T16:06:20.259Z,49.17
2023-01-20T16:08:49.956Z,66.23
2023-01-20T16:11:19.366Z,26.60
2023-01-20T16:13:46.793Z,24.77
2023-01-20T16:16:23.658Z,27.60
2023-01-20T16:18:51.577Z,21.17
2023-01-20T16:21:20.036Z,27.10
2023-01-20T16:23:47.556Z,43.43
2023-01-20T16:26:25.873Z,37.77
2023-01-20T16:28:58.050Z,38.20
2023-01-20T16:31:27.183Z,28.70
2023-01-20T16:33:55.463Z,48.07
2023-01-20T16:36:24.420Z,27.40
2023-01-20T16:38:52.869Z,29.23
2023-01-20T16:41:31.356Z,28.60
2023-01-20T16:43:59.183Z,35.63
2023-01-20T16:46:28.442Z,32.37
2023-01-20T16:49:00.429Z,37.87
2023-01-20T16:51:28.756Z,29.00
2023-01-20T16:53:57.695Z,26.47
2023-01-20T16:56:28.124Z,29.83
2023-01-20T16:59:02.108Z,40.43
2023-01-20T17:01:30.133Z,31.13
2023-01-20T17:03:59.761Z,28.03
2023-01-20T17:06:29.753Z,45.00
2023-01-20T17:08:59.983Z,42.73
2023-01-20T17:11:33.743Z,38.80
2023-01-20T17:16:30.190Z,30.37
2023-01-20T17:18:59.589Z,36.77
2023-01-20T17:21:28.508Z,47.03
2023-01-20T17:24:04.637Z,42.87
2023-01-20T17:26:31.650Z,40.20
2023-01-20T17:29:04.565Z,39.07
2023-01-20T17:31:35.922Z,34.97
2023-01-20T17:34:04.002Z,46.57
2023-01-20T17:36:35.070Z,43.47
2023-01-20T17:39:06.823Z,32.67
2023-01-20T17:41:34.261Z,30.87
2023-01-20T17:44:01.708Z,34.80
2023-01-20T17:46:31.805Z,37.10
2023-01-20T17:49:01.073Z,44.53
2023-01-20T17:51:29.616Z,30.70
2023-01-20T17:53:58.462Z,38.37
2023-01-20T17:56:26.660Z,50.63
2023-01-20T17:58:54.888Z,37.37
2023-01-20T18:01:25.663Z,38.90
2023-01-20T18:03:54.719Z,42.07
2023-01-20T18:06:23.706Z,26.93
2023-01-20T18:09:01.947Z,33.07
2023-01-20T18:11:32.293Z,32.63
2023-01-20T18:14:00.916Z,29.43
2023-01-20T18:16:29.954Z,34.73
2023-01-20T18:18:59.481Z,27.13
2023-01-20T18:21:29.964Z,29.53
2023-01-20T18:23:57.616Z,32.53
2023-01-20T18:26:29.527Z,29.93
2023-01-20T18:28:59.573Z,28.07
2023-01-20T18:31:27.887Z,24.03
2023-01-20T18:34:01.042Z,22.63
2023-01-20T18:36:39.540Z,25.48
2023-01-20T18:39:10.151Z,18.33
2023-01-20T18:41:37.965Z,21.20
2023-01-20T18:44:05.725Z,18.97
2023-01-20T18:46:32.845Z,19.13
2023-01-20T18:49:01.160Z,23.13
2023-01-20T18:51:30.451Z,25.50
2023-01-20T18:54:00.487Z,21.27
2023-01-20T18:56:28.788Z,37.47
2023-01-20T18:58:57.189Z,26.73
2023-01-20T19:01:29.812Z,29.07
2023-01-20T19:03:58.062Z,19.37
2023-01-20T19:06:28.063Z,31.63
2023-01-20T19:09:00.197Z,24.43
2023-01-20T19:11:29.630Z,13.73
2023-01-20T19:13:56.880Z,23.40
2023-01-20T19:16:27.233Z,20.03
2023-01-20T19:18:56.616Z,21.27
2023-01-20T19:21:25.149Z,20.13
2023-01-20T19:23:55.138Z,28.00
2023-01-20T19:26:25.035Z,22.70
2023-01-20T19:29:13.017Z,20.57
2023-01-20T19:31:40.288Z,25.57
2023-01-20T19:34:08.902Z,19.90
2023-01-20T19:36:37.277Z,26.03
2023-01-20T19:39:04.632Z,21.80
2023-01-20T19:41:34.577Z,25.10
2023-01-20T19:44:04.033Z,22.40
2023-01-20T19:46:33.867Z,30.57
2023-01-20T19:49:02.646Z,20.40
2023-01-20T19:51:31.841Z,19.83
2023-01-20T19:54:01.316Z,21.80
2023-01-20T19:56:33.198Z,25.37
2023-01-20T19:59:01.712Z,25.80
2023-01-20T20:01:34.355Z,20.40
2023-01-20T20:04:09.966Z,19.47
2023-01-20T20:06:39.353Z,25.10
2023-01-20T20:09:10.700Z,24.07
2023-01-20T20:11:38.195Z,20.70
2023-01-20T20:14:07.905Z,26.17
2023-01-20T20:16:36.794Z,30.03
2023-01-20T20:19:05.577Z,82.80
2023-01-20T20:21:33.227Z,99.37
2023-01-20T20:24:01.542Z,126.47
2023-01-20T20:26:30.925Z,147.03
2023-01-20T20:29:00.694Z,75.03
2023-01-20T20:31:32.063Z,21.53
2023-01-20T20:34:01.171Z,24.90
2023-01-20T20:36:29.831Z,48.87
2023-01-20T20:38:58.557Z,52.63
2023-01-20T20:41:29.336Z,30.30
2023-01-20T20:43:58.233Z,52.13
2023-01-20T20:46:27.932Z,30.87
2023-01-20T20:48:58.820Z,31.30
2023-01-20T20:51:27.837Z,23.37
2023-01-20T20:53:56.661Z,54.37
2023-01-20T20:56:25.605Z,29.83
2023-01-20T20:59:01.280Z,23.93
2023-01-20T21:01:29.532Z,35.57
2023-01-20T21:03:58.360Z,30.97
2023-01-20T21:06:26.334Z,29.50
2023-01-20T21:08:54.164Z,37.30
2023-01-20T21:11:21.667Z,24.73
2023-01-20T21:13:52.177Z,21.93
2023-01-20T21:16:22.991Z,23.83
2023-01-20T21:18:56.294Z,26.97
2023-01-20T21:21:24.152Z,23.77
2023-01-20T21:23:57.151Z,25.63
2023-01-20T21:26:27.146Z,22.17
2023-01-20T21:28:56.914Z,27.13
2023-01-20T21:31:27.082Z,26.20
2023-01-20T21:33:59.826Z,22.67
2023-01-20T21:36:29.592Z,21.37
2023-01-20T21:38:57.046Z,23.77
2023-01-20T21:41:23.759Z,24.67
2023-01-20T21:44:09.343Z,19.90
2023-01-20T21:46:40.832Z,22.77
2023-01-20T21:49:29.085Z,24.87
2023-01-20T21:52:14.859Z,20.57
2023-01-20T21:54:42.957Z,25.23
2023-01-20T21:57:10.338Z,21.67
2023-01-20T21:59:38.229Z,21.03
2023-01-20T22:02:06.558Z,21.37
2023-01-20T22:04:33.270Z,26.20
2023-01-20T22:07:00.991Z,24.43
2023-01-20T22:09:28.458Z,27.20
2023-01-20T22:11:55.919Z,22.97
2023-01-20T22:14:23.603Z,19.27
2023-01-20T22:16:51.038Z,19.53
2023-01-20T22:19:18.935Z,23.03
2023-01-20T22:21:45.501Z,20.87
2023-01-20T22:24:12.306Z,20.47
2023-01-20T22:26:39.963Z,19.93
2023-01-20T22:29:07.598Z,20.13
2023-01-20T22:31:34.454Z,19.17
2023-01-20T22:34:05.610Z,20.03
2023-01-20T22:36:34.482Z,18.03
2023-01-20T22:39:02.417Z,20.33
2023-01-20T22:41:29.205Z,15.20
2023-01-20T22:43:56.167Z,14.97
2023-01-20T22:46:25.923Z,13.47
2023-01-20T22:48:55.796Z,15.63
2023-01-20T22:51:25.285Z,16.00
2023-01-20T22:53:57.327Z,11.93
2023-01-20T22:56:26.769Z,11.57
2023-01-20T22:58:53.600Z,9.67
2023-01-20T23:01:23.447Z,9.50
2023-01-20T23:04:03.826Z,10.17
2023-01-20T23:06:34.292Z,9.63
2023-01-20T23:09:03.830Z,9.83
2023-01-20T23:11:31.182Z,7.47
2023-01-20T23:13:58.859Z,11.50
2023-01-20T23:16:25.980Z,8.53
2023-01-20T23:18:53.437Z,10.27
2023-01-20T23:21:21.376Z,10.53
2023-01-20T23:23:55.056Z,8.23
2023-01-20T23:28:54.037Z,7.80
2023-01-20T23:31:22.694Z,9.00
2023-01-20T23:33:49.823Z,8.90
2023-01-20T23:36:25.520Z,9.20
2023-01-20T23:38:56.595Z,7.57
2023-01-20T23:41:25.242Z,9.03
2023-01-20T23:43:52.149Z,8.73
2023-01-20T23:46:19.955Z,10.60
2023-01-20T23:48:47.296Z,6.83
2023-01-20T23:51:15.302Z,9.13
2023-01-20T23:53:42.907Z,7.83
2023-01-20T23:56:19.209Z,8.10
2023-01-20T23:58:46.981Z,9.07
